sensor_id;sensor_type;location;lat;lon;timestamp;P1;durP1;ratioP1;P2;durP2;ratioP2
81703;SDS011;71117;52.352;4.808;2023-09-08T00:01:58;9.40;;;6.85;;
81703;SDS011;71117;52.352;4.808;2023-09-08T00:04:24;9.00;;;7.30;;
81703;SDS011;71117;52.352;4.808;2023-09-08T00:06:49;9.90;;;7.80;;
81703;SDS011;71117;52.352;4.808;2023-09-08T00:09:15;9.60;;;7.50;;
81703;SDS011;71117;52.352;4.808;2023-09-08T00:11:40;8.90;;;7.20;;
81703;SDS011;71117;52.352;4.808;2023-09-08T00:14:06;8.20;;;6.85;;
81703;SDS011;71117;52.352;4.808;2023-09-08T00:16:31;9.73;;;7.93;;
81703;SDS011;71117;52.352;4.808;2023-09-08T00:18:57;8.30;;;7.40;;
81703;SDS011;71117;52.352;4.808;2023-09-08T00:21:26;8.88;;;7.45;;
81703;SDS011;71117;52.352;4.808;2023-09-08T00:23:51;9.15;;;7.70;;
81703;SDS011;71117;52.352;4.808;2023-09-08T00:26:17;9.25;;;7.88;;
81703;SDS011;71117;52.352;4.808;2023-09-08T00:28:43;8.95;;;7.43;;
81703;SDS011;71117;52.352;4.808;2023-09-08T00:31:08;8.07;;;7.13;;
81703;SDS011;71117;52.352;4.808;2023-09-08T00:33:33;10.82;;;8.20;;
81703;SDS011;71117;52.352;4.808;2023-09-08T00:35:59;11.07;;;7.65;;
81703;SDS011;71117;52.352;4.808;2023-09-08T00:38:24;9.13;;;7.10;;
81703;SDS011;71117;52.352;4.808;2023-09-08T00:40:49;10.40;;;7.78;;
81703;SDS011;71117;52.352;4.808;2023-09-08T00:43:15;8.57;;;7.55;;
81703;SDS011;71117;52.352;4.808;2023-09-08T00:45:42;9.00;;;8.10;;
81703;SDS011;71117;52.352;4.808;2023-09-08T00:48:08;11.63;;;7.95;;
81703;SDS011;71117;52.352;4.808;2023-09-08T00:50:34;9.13;;;7.55;;
81703;SDS011;71117;52.352;4.808;2023-09-08T00:53:02;8.20;;;7.07;;
81703;SDS011;71117;52.352;4.808;2023-09-08T00:55:28;11.20;;;9.07;;
81703;SDS011;71117;52.352;4.808;2023-09-08T00:57:54;9.65;;;8.50;;
81703;SDS011;71117;52.352;4.808;2023-09-08T01:00:20;11.80;;;7.90;;
81703;SDS011;71117;52.352;4.808;2023-09-08T01:02:45;13.32;;;9.20;;
81703;SDS011;71117;52.352;4.808;2023-09-08T01:05:10;10.32;;;8.70;;
81703;SDS011;71117;52.352;4.808;2023-09-08T01:07:37;11.93;;;8.85;;
81703;SDS011;71117;52.352;4.808;2023-09-08T01:10:03;8.95;;;8.05;;
81703;SDS011;71117;52.352;4.808;2023-09-08T01:12:31;9.30;;;8.18;;
81703;SDS011;71117;52.352;4.808;2023-09-08T01:14:58;11.68;;;9.57;;
81703;SDS011;71117;52.352;4.808;2023-09-08T01:17:23;11.40;;;8.90;;
81703;SDS011;71117;52.352;4.808;2023-09-08T01:19:48;11.40;;;9.13;;
81703;SDS011;71117;52.352;4.808;2023-09-08T01:25:12;12.10;;;9.00;;
81703;SDS011;71117;52.352;4.808;2023-09-08T01:27:46;11.05;;;8.88;;
81703;SDS011;71117;52.352;4.808;2023-09-08T01:30:14;13.20;;;8.95;;
81703;SDS011;71117;52.352;4.808;2023-09-08T01:32:41;11.00;;;9.70;;
81703;SDS011;71117;52.352;4.808;2023-09-08T01:35:09;11.18;;;8.75;;
81703;SDS011;71117;52.352;4.808;2023-09-08T01:37:34;10.73;;;8.55;;
81703;SDS011;71117;52.352;4.808;2023-09-08T01:40:00;13.70;;;10.20;;
81703;SDS011;71117;52.352;4.808;2023-09-08T01:42:25;14.20;;;9.85;;
81703;SDS011;71117;52.352;4.808;2023-09-08T01:44:50;12.65;;;10.05;;
81703;SDS011;71117;52.352;4.808;2023-09-08T01:47:16;11.77;;;9.45;;
81703;SDS011;71117;52.352;4.808;2023-09-08T01:49:41;11.57;;;9.70;;
81703;SDS011;71117;52.352;4.808;2023-09-08T01:52:07;12.05;;;9.48;;
81703;SDS011;71117;52.352;4.808;2023-09-08T01:54:32;12.45;;;10.10;;
81703;SDS011;71117;52.352;4.808;2023-09-08T01:56:57;12.73;;;9.57;;
81703;SDS011;71117;52.352;4.808;2023-09-08T01:59:23;12.20;;;9.25;;
81703;SDS011;71117;52.352;4.808;2023-09-08T02:01:48;12.55;;;9.88;;
81703;SDS011;71117;52.352;4.808;2023-09-08T02:04:13;12.40;;;9.52;;
81703;SDS011;71117;52.352;4.808;2023-09-08T02:06:39;13.55;;;9.43;;
81703;SDS011;71117;52.352;4.808;2023-09-08T02:09:04;14.10;;;10.88;;
81703;SDS011;71117;52.352;4.808;2023-09-08T02:11:29;12.80;;;9.70;;
81703;SDS011;71117;52.352;4.808;2023-09-08T02:13:55;11.38;;;9.60;;
81703;SDS011;71117;52.352;4.808;2023-09-08T02:16:20;14.68;;;10.25;;
81703;SDS011;71117;52.352;4.808;2023-09-08T02:18:45;12.40;;;10.35;;
81703;SDS011;71117;52.352;4.808;2023-09-08T02:21:11;13.23;;;10.60;;
81703;SDS011;71117;52.352;4.808;2023-09-08T02:23:37;13.90;;;9.85;;
81703;SDS011;71117;52.352;4.808;2023-09-08T02:26:02;11.52;;;9.45;;
81703;SDS011;71117;52.352;4.808;2023-09-08T02:28:28;19.00;;;11.77;;
81703;SDS011;71117;52.352;4.808;2023-09-08T02:30:54;15.00;;;11.32;;
81703;SDS011;71117;52.352;4.808;2023-09-08T02:33:19;14.15;;;10.35;;
81703;SDS011;71117;52.352;4.808;2023-09-08T02:35:45;14.68;;;11.43;;
81703;SDS011;71117;52.352;4.808;2023-09-08T02:38:10;14.35;;;11.23;;
81703;SDS011;71117;52.352;4.808;2023-09-08T02:40:36;15.05;;;11.20;;
81703;SDS011;71117;52.352;4.808;2023-09-08T02:43:01;11.98;;;10.25;;
81703;SDS011;71117;52.352;4.808;2023-09-08T02:45:27;17.13;;;11.20;;
81703;SDS011;71117;52.352;4.808;2023-09-08T02:47:54;17.10;;;11.25;;
81703;SDS011;71117;52.352;4.808;2023-09-08T02:50:20;13.13;;;10.35;;
81703;SDS011;71117;52.352;4.808;2023-09-08T02:52:45;14.93;;;11.68;;
81703;SDS011;71117;52.352;4.808;2023-09-08T02:55:11;14.98;;;10.88;;
81703;SDS011;71117;52.352;4.808;2023-09-08T02:57:38;12.43;;;10.15;;
81703;SDS011;71117;52.352;4.808;2023-09-08T03:00:04;13.43;;;10.70;;
81703;SDS011;71117;52.352;4.808;2023-09-08T03:02:30;16.02;;;10.85;;
81703;SDS011;71117;52.352;4.808;2023-09-08T03:04:56;17.00;;;12.45;;
81703;SDS011;71117;52.352;4.808;2023-09-08T03:07:21;15.77;;;11.65;;
81703;SDS011;71117;52.352;4.808;2023-09-08T03:09:47;14.23;;;11.48;;
81703;SDS011;71117;52.352;4.808;2023-09-08T03:12:13;14.40;;;11.27;;
81703;SDS011;71117;52.352;4.808;2023-09-08T03:14:38;16.08;;;12.25;;
81703;SDS011;71117;52.352;4.808;2023-09-08T03:17:03;15.65;;;12.65;;
81703;SDS011;71117;52.352;4.808;2023-09-08T03:19:29;15.30;;;11.35;;
81703;SDS011;71117;52.352;4.808;2023-09-08T03:21:54;13.95;;;10.82;;
81703;SDS011;71117;52.352;4.808;2023-09-08T03:24:19;14.02;;;11.35;;
81703;SDS011;71117;52.352;4.808;2023-09-08T03:26:45;14.57;;;11.32;;
81703;SDS011;71117;52.352;4.808;2023-09-08T03:29:10;15.10;;;11.95;;
81703;SDS011;71117;52.352;4.808;2023-09-08T03:31:35;13.80;;;11.32;;
81703;SDS011;71117;52.352;4.808;2023-09-08T03:34:01;14.70;;;11.38;;
81703;SDS011;71117;52.352;4.808;2023-09-08T03:36:26;16.02;;;11.48;;
81703;SDS011;71117;52.352;4.808;2023-09-08T03:38:52;16.60;;;11.93;;
81703;SDS011;71117;52.352;4.808;2023-09-08T03:41:17;16.23;;;11.02;;
81703;SDS011;71117;52.352;4.808;2023-09-08T03:43:43;14.90;;;10.73;;
81703;SDS011;71117;52.352;4.808;2023-09-08T03:46:08;13.90;;;11.68;;
81703;SDS011;71117;52.352;4.808;2023-09-08T03:48:33;16.73;;;12.35;;
81703;SDS011;71117;52.352;4.808;2023-09-08T03:50:59;15.85;;;11.65;;
81703;SDS011;71117;52.352;4.808;2023-09-08T03:53:24;13.38;;;11.50;;
81703;SDS011;71117;52.352;4.808;2023-09-08T03:55:50;20.48;;;13.15;;
81703;SDS011;71117;52.352;4.808;2023-09-08T03:58:15;16.85;;;11.70;;
81703;SDS011;71117;52.352;4.808;2023-09-08T04:00:41;18.38;;;12.10;;
81703;SDS011;71117;52.352;4.808;2023-09-08T04:03:07;18.63;;;11.35;;
81703;SDS011;71117;52.352;4.808;2023-09-08T04:05:33;14.90;;;10.95;;
81703;SDS011;71117;52.352;4.808;2023-09-08T04:07:59;14.18;;;10.35;;
81703;SDS011;71117;52.352;4.808;2023-09-08T04:10:25;15.80;;;11.88;;
81703;SDS011;71117;52.352;4.808;2023-09-08T04:12:50;15.30;;;10.68;;
81703;SDS011;71117;52.352;4.808;2023-09-08T04:15:16;16.42;;;11.40;;
81703;SDS011;71117;52.352;4.808;2023-09-08T04:17:41;15.70;;;12.73;;
81703;SDS011;71117;52.352;4.808;2023-09-08T04:20:06;15.52;;;11.98;;
81703;SDS011;71117;52.352;4.808;2023-09-08T04:22:35;15.48;;;11.90;;
81703;SDS011;71117;52.352;4.808;2023-09-08T04:25:00;18.40;;;13.50;;
81703;SDS011;71117;52.352;4.808;2023-09-08T04:27:26;17.10;;;11.90;;
81703;SDS011;71117;52.352;4.808;2023-09-08T04:29:52;16.05;;;12.40;;
81703;SDS011;71117;52.352;4.808;2023-09-08T04:32:17;15.80;;;11.40;;
81703;SDS011;71117;52.352;4.808;2023-09-08T04:34:42;15.30;;;11.38;;
81703;SDS011;71117;52.352;4.808;2023-09-08T04:37:08;17.00;;;12.50;;
81703;SDS011;71117;52.352;4.808;2023-09-08T04:39:34;16.13;;;12.07;;
81703;SDS011;71117;52.352;4.808;2023-09-08T04:42:00;14.30;;;11.35;;
81703;SDS011;71117;52.352;4.808;2023-09-08T04:44:26;15.00;;;12.15;;
81703;SDS011;71117;52.352;4.808;2023-09-08T04:46:52;15.25;;;12.15;;
81703;SDS011;71117;52.352;4.808;2023-09-08T04:49:17;18.63;;;14.27;;
81703;SDS011;71117;52.352;4.808;2023-09-08T04:51:43;19.73;;;14.48;;
81703;SDS011;71117;52.352;4.808;2023-09-08T04:54:09;16.98;;;12.35;;
81703;SDS011;71117;52.352;4.808;2023-09-08T04:56:34;20.58;;;13.82;;
81703;SDS011;71117;52.352;4.808;2023-09-08T04:58:59;17.55;;;12.73;;
81703;SDS011;71117;52.352;4.808;2023-09-08T05:01:26;18.38;;;13.45;;
81703;SDS011;71117;52.352;4.808;2023-09-08T05:03:52;18.55;;;13.48;;
81703;SDS011;71117;52.352;4.808;2023-09-08T05:06:17;16.70;;;12.85;;
81703;SDS011;71117;52.352;4.808;2023-09-08T05:08:42;17.85;;;13.43;;
81703;SDS011;71117;52.352;4.808;2023-09-08T05:11:09;19.02;;;13.23;;
81703;SDS011;71117;52.352;4.808;2023-09-08T05:13:34;16.20;;;13.05;;
81703;SDS011;71117;52.352;4.808;2023-09-08T05:16:00;17.48;;;13.48;;
81703;SDS011;71117;52.352;4.808;2023-09-08T05:18:35;21.15;;;13.80;;
81703;SDS011;71117;52.352;4.808;2023-09-08T05:21:01;20.67;;;14.75;;
81703;SDS011;71117;52.352;4.808;2023-09-08T05:23:26;19.73;;;14.20;;
81703;SDS011;71117;52.352;4.808;2023-09-08T05:25:51;20.98;;;14.27;;
81703;SDS011;71117;52.352;4.808;2023-09-08T05:28:17;18.10;;;12.93;;
81703;SDS011;71117;52.352;4.808;2023-09-08T05:30:42;21.70;;;14.85;;
81703;SDS011;71117;52.352;4.808;2023-09-08T05:33:08;21.63;;;14.50;;
81703;SDS011;71117;52.352;4.808;2023-09-08T05:35:33;20.45;;;13.85;;
81703;SDS011;71117;52.352;4.808;2023-09-08T05:37:59;17.60;;;13.30;;
81703;SDS011;71117;52.352;4.808;2023-09-08T05:40:24;21.95;;;14.73;;
81703;SDS011;71117;52.352;4.808;2023-09-08T05:42:51;17.80;;;14.38;;
81703;SDS011;71117;52.352;4.808;2023-09-08T05:45:16;19.52;;;14.05;;
81703;SDS011;71117;52.352;4.808;2023-09-08T05:47:41;21.27;;;15.30;;
81703;SDS011;71117;52.352;4.808;2023-09-08T05:50:07;20.48;;;15.20;;
81703;SDS011;71117;52.352;4.808;2023-09-08T05:52:32;20.13;;;15.10;;
81703;SDS011;71117;52.352;4.808;2023-09-08T05:54:58;20.00;;;15.25;;
81703;SDS011;71117;52.352;4.808;2023-09-08T05:57:24;21.65;;;14.50;;
81703;SDS011;71117;52.352;4.808;2023-09-08T05:59:49;20.45;;;15.70;;
81703;SDS011;71117;52.352;4.808;2023-09-08T06:02:14;20.90;;;15.68;;
81703;SDS011;71117;52.352;4.808;2023-09-08T06:04:40;25.08;;;15.93;;
81703;SDS011;71117;52.352;4.808;2023-09-08T06:07:05;17.95;;;13.43;;
81703;SDS011;71117;52.352;4.808;2023-09-08T06:09:31;19.73;;;13.68;;
81703;SDS011;71117;52.352;4.808;2023-09-08T06:11:57;16.23;;;12.43;;
81703;SDS011;71117;52.352;4.808;2023-09-08T06:14:22;21.23;;;14.38;;
81703;SDS011;71117;52.352;4.808;2023-09-08T06:16:48;19.85;;;14.00;;
81703;SDS011;71117;52.352;4.808;2023-09-08T06:19:13;20.83;;;15.05;;
81703;SDS011;71117;52.352;4.808;2023-09-08T06:21:39;23.98;;;15.32;;
81703;SDS011;71117;52.352;4.808;2023-09-08T06:24:04;22.50;;;14.52;;
81703;SDS011;71117;52.352;4.808;2023-09-08T06:26:30;19.08;;;14.20;;
81703;SDS011;71117;52.352;4.808;2023-09-08T06:28:55;18.10;;;13.90;;
81703;SDS011;71117;52.352;4.808;2023-09-08T06:31:20;20.75;;;14.35;;
81703;SDS011;71117;52.352;4.808;2023-09-08T06:33:46;19.15;;;13.85;;
81703;SDS011;71117;52.352;4.808;2023-09-08T06:36:11;19.13;;;14.52;;
81703;SDS011;71117;52.352;4.808;2023-09-08T06:38:36;20.48;;;13.68;;
81703;SDS011;71117;52.352;4.808;2023-09-08T06:41:08;18.42;;;13.63;;
81703;SDS011;71117;52.352;4.808;2023-09-08T06:43:34;17.10;;;13.45;;
81703;SDS011;71117;52.352;4.808;2023-09-08T06:46:00;19.48;;;14.82;;
81703;SDS011;71117;52.352;4.808;2023-09-08T06:48:25;21.92;;;15.20;;
81703;SDS011;71117;52.352;4.808;2023-09-08T06:50:52;23.20;;;14.93;;
81703;SDS011;71117;52.352;4.808;2023-09-08T06:53:19;17.02;;;12.93;;
81703;SDS011;71117;52.352;4.808;2023-09-08T06:55:44;19.98;;;13.88;;
81703;SDS011;71117;52.352;4.808;2023-09-08T06:58:10;19.52;;;13.52;;
81703;SDS011;71117;52.352;4.808;2023-09-08T07:00:35;23.02;;;14.80;;
81703;SDS011;71117;52.352;4.808;2023-09-08T07:03:01;20.95;;;14.48;;
81703;SDS011;71117;52.352;4.808;2023-09-08T07:05:27;17.80;;;14.80;;
81703;SDS011;71117;52.352;4.808;2023-09-08T07:07:52;23.35;;;15.75;;
81703;SDS011;71117;52.352;4.808;2023-09-08T07:10:19;19.10;;;14.90;;
81703;SDS011;71117;52.352;4.808;2023-09-08T07:12:44;22.00;;;14.57;;
81703;SDS011;71117;52.352;4.808;2023-09-08T07:15:10;21.85;;;15.70;;
81703;SDS011;71117;52.352;4.808;2023-09-08T07:17:35;22.95;;;15.20;;
81703;SDS011;71117;52.352;4.808;2023-09-08T07:20:01;20.17;;;15.07;;
81703;SDS011;71117;52.352;4.808;2023-09-08T07:22:28;19.92;;;14.40;;
81703;SDS011;71117;52.352;4.808;2023-09-08T07:24:53;20.05;;;16.23;;
81703;SDS011;71117;52.352;4.808;2023-09-08T07:27:18;18.80;;;14.18;;
81703;SDS011;71117;52.352;4.808;2023-09-08T07:29:45;18.52;;;14.68;;
81703;SDS011;71117;52.352;4.808;2023-09-08T07:32:12;19.98;;;14.75;;
81703;SDS011;71117;52.352;4.808;2023-09-08T07:34:38;18.20;;;14.85;;
81703;SDS011;71117;52.352;4.808;2023-09-08T07:37:03;19.02;;;14.93;;
81703;SDS011;71117;52.352;4.808;2023-09-08T07:39:28;20.10;;;14.93;;
81703;SDS011;71117;52.352;4.808;2023-09-08T07:41:55;22.52;;;17.30;;
81703;SDS011;71117;52.352;4.808;2023-09-08T07:44:21;20.00;;;15.13;;
81703;SDS011;71117;52.352;4.808;2023-09-08T07:46:47;20.60;;;14.93;;
81703;SDS011;71117;52.352;4.808;2023-09-08T07:49:14;20.23;;;15.70;;
81703;SDS011;71117;52.352;4.808;2023-09-08T07:51:40;18.65;;;14.32;;
81703;SDS011;71117;52.352;4.808;2023-09-08T07:54:05;19.15;;;15.20;;
81703;SDS011;71117;52.352;4.808;2023-09-08T07:56:31;21.20;;;15.65;;
81703;SDS011;71117;52.352;4.808;2023-09-08T07:58:57;20.95;;;15.02;;
81703;SDS011;71117;52.352;4.808;2023-09-08T08:01:23;19.52;;;15.30;;
81703;SDS011;71117;52.352;4.808;2023-09-08T08:03:48;23.00;;;15.18;;
81703;SDS011;71117;52.352;4.808;2023-09-08T08:06:13;22.02;;;15.43;;
81703;SDS011;71117;52.352;4.808;2023-09-08T08:08:39;21.08;;;16.80;;
81703;SDS011;71117;52.352;4.808;2023-09-08T08:11:15;23.88;;;16.38;;
81703;SDS011;71117;52.352;4.808;2023-09-08T08:13:42;24.48;;;16.25;;
81703;SDS011;71117;52.352;4.808;2023-09-08T08:16:08;22.25;;;16.38;;
81703;SDS011;71117;52.352;4.808;2023-09-08T08:18:33;22.85;;;17.13;;
81703;SDS011;71117;52.352;4.808;2023-09-08T08:20:59;24.75;;;17.75;;
81703;SDS011;71117;52.352;4.808;2023-09-08T08:23:25;20.95;;;17.00;;
81703;SDS011;71117;52.352;4.808;2023-09-08T08:25:51;20.02;;;15.10;;
81703;SDS011;71117;52.352;4.808;2023-09-08T08:28:16;24.48;;;16.50;;
81703;SDS011;71117;52.352;4.808;2023-09-08T08:30:42;23.77;;;17.08;;
81703;SDS011;71117;52.352;4.808;2023-09-08T08:33:07;25.75;;;17.30;;
81703;SDS011;71117;52.352;4.808;2023-09-08T08:35:32;20.90;;;16.65;;
81703;SDS011;71117;52.352;4.808;2023-09-08T08:37:58;19.42;;;15.85;;
81703;SDS011;71117;52.352;4.808;2023-09-08T08:40:25;20.38;;;15.73;;
81703;SDS011;71117;52.352;4.808;2023-09-08T08:42:54;21.40;;;15.98;;
81703;SDS011;71117;52.352;4.808;2023-09-08T08:45:22;22.88;;;16.35;;
81703;SDS011;71117;52.352;4.808;2023-09-08T08:47:51;19.30;;;16.27;;
81703;SDS011;71117;52.352;4.808;2023-09-08T08:50:18;20.17;;;15.75;;
81703;SDS011;71117;52.352;4.808;2023-09-08T08:52:44;20.92;;;15.32;;
81703;SDS011;71117;52.352;4.808;2023-09-08T08:55:11;20.80;;;16.58;;
81703;SDS011;71117;52.352;4.808;2023-09-08T08:57:40;19.60;;;15.80;;
81703;SDS011;71117;52.352;4.808;2023-09-08T09:00:10;19.55;;;16.27;;
81703;SDS011;71117;52.352;4.808;2023-09-08T09:02:38;19.55;;;15.70;;
81703;SDS011;71117;52.352;4.808;2023-09-08T09:05:06;22.60;;;17.25;;
81703;SDS011;71117;52.352;4.808;2023-09-08T09:07:33;24.10;;;17.25;;
81703;SDS011;71117;52.352;4.808;2023-09-08T09:09:59;26.25;;;16.20;;
81703;SDS011;71117;52.352;4.808;2023-09-08T09:12:25;22.13;;;17.50;;
81703;SDS011;71117;52.352;4.808;2023-09-08T09:14:54;23.85;;;19.55;;
81703;SDS011;71117;52.352;4.808;2023-09-08T09:17:19;23.73;;;18.38;;
81703;SDS011;71117;52.352;4.808;2023-09-08T09:19:46;22.73;;;18.00;;
81703;SDS011;71117;52.352;4.808;2023-09-08T09:22:11;20.80;;;16.58;;
81703;SDS011;71117;52.352;4.808;2023-09-08T09:24:37;21.33;;;17.13;;
81703;SDS011;71117;52.352;4.808;2023-09-08T09:27:06;22.08;;;17.10;;
81703;SDS011;71117;52.352;4.808;2023-09-08T09:29:33;23.52;;;17.75;;
81703;SDS011;71117;52.352;4.808;2023-09-08T09:32:06;22.40;;;17.58;;
81703;SDS011;71117;52.352;4.808;2023-09-08T09:34:33;24.10;;;18.17;;
81703;SDS011;71117;52.352;4.808;2023-09-08T09:36:59;26.63;;;19.40;;
81703;SDS011;71117;52.352;4.808;2023-09-08T09:39:25;21.67;;;16.52;;
81703;SDS011;71117;52.352;4.808;2023-09-08T09:41:54;22.10;;;18.00;;
81703;SDS011;71117;52.352;4.808;2023-09-08T09:44:21;19.88;;;17.65;;
81703;SDS011;71117;52.352;4.808;2023-09-08T09:46:47;21.15;;;15.43;;
81703;SDS011;71117;52.352;4.808;2023-09-08T09:49:13;20.65;;;17.25;;
81703;SDS011;71117;52.352;4.808;2023-09-08T09:51:40;29.10;;;17.88;;
81703;SDS011;71117;52.352;4.808;2023-09-08T09:54:07;20.15;;;17.83;;
81703;SDS011;71117;52.352;4.808;2023-09-08T09:56:33;25.65;;;18.52;;
81703;SDS011;71117;52.352;4.808;2023-09-08T09:59:02;22.80;;;18.63;;
81703;SDS011;71117;52.352;4.808;2023-09-08T10:01:29;21.10;;;17.75;;
81703;SDS011;71117;52.352;4.808;2023-09-08T10:03:54;29.98;;;20.38;;
81703;SDS011;71117;52.352;4.808;2023-09-08T10:06:20;21.52;;;18.48;;
81703;SDS011;71117;52.352;4.808;2023-09-08T10:08:47;24.55;;;19.38;;
81703;SDS011;71117;52.352;4.808;2023-09-08T10:11:13;23.60;;;18.15;;
81703;SDS011;71117;52.352;4.808;2023-09-08T10:13:45;18.75;;;16.75;;
81703;SDS011;71117;52.352;4.808;2023-09-08T10:16:12;24.02;;;17.98;;
81703;SDS011;71117;52.352;4.808;2023-09-08T10:18:41;22.27;;;17.42;;
81703;SDS011;71117;52.352;4.808;2023-09-08T10:21:10;23.58;;;17.48;;
81703;SDS011;71117;52.352;4.808;2023-09-08T10:23:37;18.80;;;16.90;;
81703;SDS011;71117;52.352;4.808;2023-09-08T10:26:06;19.35;;;16.00;;
81703;SDS011;71117;52.352;4.808;2023-09-08T10:28:35;19.42;;;16.38;;
81703;SDS011;71117;52.352;4.808;2023-09-08T10:31:02;23.70;;;16.35;;
81703;SDS011;71117;52.352;4.808;2023-09-08T10:33:28;19.10;;;17.10;;
81703;SDS011;71117;52.352;4.808;2023-09-08T10:35:54;18.88;;;16.23;;
81703;SDS011;71117;52.352;4.808;2023-09-08T10:38:25;18.15;;;15.98;;
81703;SDS011;71117;52.352;4.808;2023-09-08T10:41:25;20.70;;;16.73;;
81703;SDS011;71117;52.352;4.808;2023-09-08T10:44:03;21.60;;;16.35;;
81703;SDS011;71117;52.352;4.808;2023-09-08T10:46:32;23.58;;;16.23;;
81703;SDS011;71117;52.352;4.808;2023-09-08T10:49:02;18.33;;;15.20;;
81703;SDS011;71117;52.352;4.808;2023-09-08T10:51:35;16.58;;;13.65;;
81703;SDS011;71117;52.352;4.808;2023-09-08T10:54:01;15.57;;;11.98;;
81703;SDS011;71117;52.352;4.808;2023-09-08T10:56:46;17.90;;;15.88;;
81703;SDS011;71117;52.352;4.808;2023-09-08T10:59:15;19.33;;;17.33;;
81703;SDS011;71117;52.352;4.808;2023-09-08T11:01:41;15.07;;;13.50;;
81703;SDS011;71117;52.352;4.808;2023-09-08T11:04:07;15.85;;;14.15;;
81703;SDS011;71117;52.352;4.808;2023-09-08T11:06:35;15.48;;;13.98;;
81703;SDS011;71117;52.352;4.808;2023-09-08T11:09:07;16.73;;;13.18;;
81703;SDS011;71117;52.352;4.808;2023-09-08T11:11:33;17.90;;;15.23;;
81703;SDS011;71117;52.352;4.808;2023-09-08T11:13:59;16.73;;;13.40;;
81703;SDS011;71117;52.352;4.808;2023-09-08T11:16:24;13.98;;;12.68;;
81703;SDS011;71117;52.352;4.808;2023-09-08T11:18:54;16.95;;;14.45;;
81703;SDS011;71117;52.352;4.808;2023-09-08T11:21:19;14.88;;;11.48;;
81703;SDS011;71117;52.352;4.808;2023-09-08T11:23:45;14.63;;;13.20;;
81703;SDS011;71117;52.352;4.808;2023-09-08T11:26:11;20.38;;;13.75;;
81703;SDS011;71117;52.352;4.808;2023-09-08T11:28:37;14.50;;;13.00;;
81703;SDS011;71117;52.352;4.808;2023-09-08T11:31:02;17.35;;;15.70;;
81703;SDS011;71117;52.352;4.808;2023-09-08T11:33:32;15.48;;;13.95;;
81703;SDS011;71117;52.352;4.808;2023-09-08T11:36:10;18.95;;;14.95;;
81703;SDS011;71117;52.352;4.808;2023-09-08T11:38:37;15.00;;;13.23;;
81703;SDS011;71117;52.352;4.808;2023-09-08T11:41:03;13.15;;;11.82;;
81703;SDS011;71117;52.352;4.808;2023-09-08T11:43:28;16.52;;;14.73;;
81703;SDS011;71117;52.352;4.808;2023-09-08T11:45:57;13.43;;;12.13;;
81703;SDS011;71117;52.352;4.808;2023-09-08T11:48:24;13.40;;;11.43;;
81703;SDS011;71117;52.352;4.808;2023-09-08T11:50:52;12.90;;;11.18;;
81703;SDS011;71117;52.352;4.808;2023-09-08T11:53:19;12.75;;;11.27;;
81703;SDS011;71117;52.352;4.808;2023-09-08T11:55:46;13.43;;;9.77;;
81703;SDS011;71117;52.352;4.808;2023-09-08T11:58:11;15.73;;;14.13;;
81703;SDS011;71117;52.352;4.808;2023-09-08T12:00:37;14.88;;;13.38;;
81703;SDS011;71117;52.352;4.808;2023-09-08T12:03:13;14.00;;;12.43;;
81703;SDS011;71117;52.352;4.808;2023-09-08T12:05:40;12.80;;;11.50;;
81703;SDS011;71117;52.352;4.808;2023-09-08T12:08:07;16.60;;;13.75;;
81703;SDS011;71117;52.352;4.808;2023-09-08T12:10:39;13.60;;;12.30;;
81703;SDS011;71117;52.352;4.808;2023-09-08T12:13:05;15.93;;;14.43;;
81703;SDS011;71117;52.352;4.808;2023-09-08T12:17:57;13.60;;;12.27;;
81703;SDS011;71117;52.352;4.808;2023-09-08T12:20:23;14.20;;;12.98;;
81703;SDS011;71117;52.352;4.808;2023-09-08T12:22:51;13.30;;;11.65;;
81703;SDS011;71117;52.352;4.808;2023-09-08T12:25:17;15.10;;;13.55;;
81703;SDS011;71117;52.352;4.808;2023-09-08T12:27:44;14.05;;;12.73;;
81703;SDS011;71117;52.352;4.808;2023-09-08T12:30:16;15.45;;;13.85;;
81703;SDS011;71117;52.352;4.808;2023-09-08T12:32:44;15.77;;;13.80;;
81703;SDS011;71117;52.352;4.808;2023-09-08T12:35:11;14.55;;;13.05;;
81703;SDS011;71117;52.352;4.808;2023-09-08T12:37:36;17.07;;;15.00;;
81703;SDS011;71117;52.352;4.808;2023-09-08T12:40:03;14.60;;;13.23;;
81703;SDS011;71117;52.352;4.808;2023-09-08T12:42:29;15.05;;;12.85;;
81703;SDS011;71117;52.352;4.808;2023-09-08T12:44:55;14.13;;;12.73;;
81703;SDS011;71117;52.352;4.808;2023-09-08T12:47:20;13.75;;;12.10;;
81703;SDS011;71117;52.352;4.808;2023-09-08T12:49:46;12.45;;;11.27;;
81703;SDS011;71117;52.352;4.808;2023-09-08T12:52:11;14.43;;;12.80;;
81703;SDS011;71117;52.352;4.808;2023-09-08T12:54:37;12.75;;;11.52;;
81703;SDS011;71117;52.352;4.808;2023-09-08T12:57:02;15.18;;;13.68;;
81703;SDS011;71117;52.352;4.808;2023-09-08T12:59:28;10.40;;;9.43;;
81703;SDS011;71117;52.352;4.808;2023-09-08T13:01:53;12.48;;;9.48;;
81703;SDS011;71117;52.352;4.808;2023-09-08T13:04:20;10.80;;;9.80;;
81703;SDS011;71117;52.352;4.808;2023-09-08T13:06:47;12.85;;;11.55;;
81703;SDS011;71117;52.352;4.808;2023-09-08T13:09:12;8.63;;;7.82;;
81703;SDS011;71117;52.352;4.808;2023-09-08T13:11:38;9.60;;;8.57;;
81703;SDS011;71117;52.352;4.808;2023-09-08T13:14:03;7.93;;;7.15;;
81703;SDS011;71117;52.352;4.808;2023-09-08T13:16:29;7.07;;;6.47;;
81703;SDS011;71117;52.352;4.808;2023-09-08T13:18:54;7.95;;;7.35;;
81703;SDS011;71117;52.352;4.808;2023-09-08T13:21:20;9.02;;;8.23;;
81703;SDS011;71117;52.352;4.808;2023-09-08T13:23:45;10.13;;;9.20;;
81703;SDS011;71117;52.352;4.808;2023-09-08T13:26:11;9.43;;;8.20;;
81703;SDS011;71117;52.352;4.808;2023-09-08T13:28:36;11.82;;;10.68;;
81703;SDS011;71117;52.352;4.808;2023-09-08T13:31:01;9.43;;;7.95;;
81703;SDS011;71117;52.352;4.808;2023-09-08T13:33:27;9.65;;;8.65;;
81703;SDS011;71117;52.352;4.808;2023-09-08T13:35:52;9.57;;;8.73;;
81703;SDS011;71117;52.352;4.808;2023-09-08T13:38:17;11.02;;;9.93;;
81703;SDS011;71117;52.352;4.808;2023-09-08T13:40:43;11.07;;;9.98;;
81703;SDS011;71117;52.352;4.808;2023-09-08T13:43:08;10.85;;;9.75;;
81703;SDS011;71117;52.352;4.808;2023-09-08T13:45:34;10.30;;;9.35;;
81703;SDS011;71117;52.352;4.808;2023-09-08T13:47:59;12.93;;;9.57;;
81703;SDS011;71117;52.352;4.808;2023-09-08T13:50:24;9.85;;;8.95;;
81703;SDS011;71117;52.352;4.808;2023-09-08T13:52:50;10.48;;;9.32;;
81703;SDS011;71117;52.352;4.808;2023-09-08T13:55:15;13.52;;;12.13;;
81703;SDS011;71117;52.352;4.808;2023-09-08T13:57:40;11.95;;;10.65;;
81703;SDS011;71117;52.352;4.808;2023-09-08T14:00:06;13.30;;;10.10;;
81703;SDS011;71117;52.352;4.808;2023-09-08T14:02:33;11.70;;;10.63;;
81703;SDS011;71117;52.352;4.808;2023-09-08T14:04:59;9.55;;;8.65;;
81703;SDS011;71117;52.352;4.808;2023-09-08T14:07:24;20.38;;;10.52;;
81703;SDS011;71117;52.352;4.808;2023-09-08T14:09:50;11.60;;;10.43;;
81703;SDS011;71117;52.352;4.808;2023-09-08T14:12:15;18.23;;;11.70;;
81703;SDS011;71117;52.352;4.808;2023-09-08T14:14:40;12.85;;;10.27;;
81703;SDS011;71117;52.352;4.808;2023-09-08T14:17:06;12.48;;;11.15;;
81703;SDS011;71117;52.352;4.808;2023-09-08T14:19:31;11.07;;;9.88;;
81703;SDS011;71117;52.352;4.808;2023-09-08T14:21:56;11.57;;;10.07;;
81703;SDS011;71117;52.352;4.808;2023-09-08T14:24:22;12.38;;;11.20;;
81703;SDS011;71117;52.352;4.808;2023-09-08T14:26:48;13.90;;;11.25;;